createdAt,value
2017-03-23T00:00:35.363Z,0
2017-03-23T00:01:46.551Z,0
2017-03-23T00:02:57.537Z,0
2017-03-23T00:04:08.519Z,0
2017-03-23T00:05:19.561Z,0
2017-03-23T00:06:30.535Z,0
2017-03-23T00:07:41.918Z,0
2017-03-23T00:08:52.905Z,0
2017-03-23T00:10:03.940Z,0
2017-03-23T00:11:15.129Z,0
2017-03-23T00:12:26.316Z,0
2017-03-23T00:13:37.300Z,0
2017-03-23T00:14:48.285Z,0
2017-03-23T00:15:59.271Z,0
2017-03-23T00:17:10.256Z,0
2017-03-23T00:18:21.511Z,0
2017-03-23T00:19:32.701Z,0
2017-03-23T00:20:43.741Z,0
2017-03-23T00:21:54.731Z,0
2017-03-23T00:23:05.918Z,0
2017-03-23T00:24:17.098Z,0
2017-03-23T00:25:28.096Z,0
2017-03-23T00:26:39.316Z,0
2017-03-23T00:27:50.497Z,0
2017-03-23T00:29:01.480Z,0
2017-03-23T00:30:12.471Z,0
2017-03-23T00:31:23.504Z,0
2017-03-23T00:32:34.897Z,0
2017-03-23T00:33:45.878Z,0
2017-03-23T00:34:56.863Z,0
2017-03-23T00:36:07.848Z,0
2017-03-23T00:37:19.235Z,0
2017-03-23T00:38:30.217Z,0
2017-03-23T00:39:41.204Z,0
2017-03-23T00:40:52.396Z,0
2017-03-23T00:42:03.376Z,0
2017-03-23T00:43:14.765Z,0
2017-03-23T00:44:25.747Z,0
2017-03-23T00:45:36.930Z,0
2017-03-23T00:46:47.941Z,0
2017-03-23T00:47:59.169Z,0
2017-03-23T00:49:10.357Z,0
2017-03-23T00:50:21.539Z,0
2017-03-23T00:51:32.533Z,0
2017-03-23T00:52:43.522Z,0
2017-03-23T00:53:54.504Z,0
2017-03-23T00:55:05.480Z,0
2017-03-23T00:56:16.472Z,0
2017-03-23T00:57:27.459Z,0
2017-03-23T00:58:38.497Z,0
2017-03-23T00:59:49.484Z,0
2017-03-23T01:01:00.475Z,0
2017-03-23T01:02:11.666Z,0
2017-03-23T01:03:22.866Z,0
2017-03-23T01:04:33.857Z,0
2017-03-23T01:05:44.846Z,0
2017-03-23T01:06:55.837Z,0
2017-03-23T01:08:06.812Z,0
2017-03-23T01:09:18.048Z,0
2017-03-23T01:10:29.236Z,0
2017-03-23T01:11:40.411Z,0
2017-03-23T01:12:51.593Z,0
2017-03-23T01:14:02.570Z,0
2017-03-23T01:15:13.757Z,0
2017-03-23T01:16:24.743Z,0
2017-03-23T01:17:35.923Z,0
2017-03-23T01:18:46.902Z,0
2017-03-23T01:19:57.886Z,0
2017-03-23T01:21:09.072Z,0
2017-03-23T01:22:20.064Z,0
2017-03-23T01:23:31.044Z,0
2017-03-23T01:24:42.034Z,0
2017-03-23T01:25:53.068Z,0
2017-03-23T01:27:04.260Z,0
2017-03-23T01:28:15.244Z,0
2017-03-23T01:29:26.220Z,0
2017-03-23T01:30:37.409Z,0
2017-03-23T01:31:48.838Z,0
2017-03-23T01:32:59.818Z,0
2017-03-23T01:34:10.807Z,0
2017-03-23T01:35:21.817Z,0
2017-03-23T01:36:32.861Z,0
2017-03-23T01:37:43.848Z,0
2017-03-23T01:38:54.836Z,0
2017-03-23T01:40:05.825Z,0
2017-03-23T01:41:16.801Z,0
2017-03-23T01:42:27.839Z,0
2017-03-23T01:43:39.028Z,0
2017-03-23T01:44:50.015Z,0
2017-03-23T01:46:01.006Z,0
2017-03-23T01:47:12.048Z,0
2017-03-23T01:48:23.229Z,0
2017-03-23T01:49:34.208Z,0
2017-03-23T01:50:45.194Z,0
2017-03-23T01:51:56.390Z,0
2017-03-23T01:53:07.379Z,0
2017-03-23T01:54:18.356Z,0
2017-03-23T01:55:29.351Z,0
2017-03-23T01:56:40.334Z,0
2017-03-23T01:57:51.516Z,0
2017-03-23T01:59:02.905Z,0
2017-03-23T02:00:13.884Z,0
2017-03-23T02:01:24.875Z,0
2017-03-23T02:02:36.077Z,0
2017-03-23T02:03:47.313Z,0
2017-03-23T02:04:58.504Z,0
2017-03-23T02:06:09.492Z,0
2017-03-23T02:07:20.479Z,0
2017-03-23T02:08:31.467Z,0
2017-03-23T02:09:42.447Z,0
2017-03-23T02:10:53.438Z,0
2017-03-23T02:12:04.419Z,0
2017-03-23T02:13:15.618Z,0
2017-03-23T02:14:26.662Z,0
2017-03-23T02:15:37.649Z,0
2017-03-23T02:16:48.631Z,0
2017-03-23T02:17:59.619Z,0
2017-03-23T02:19:10.609Z,0
2017-03-23T02:20:21.589Z,0
2017-03-23T02:21:32.579Z,0
2017-03-23T02:22:43.961Z,0
2017-03-23T02:23:54.952Z,0
2017-03-23T02:25:05.981Z,0
2017-03-23T02:26:16.958Z,0
2017-03-23T02:27:28.138Z,0
2017-03-23T02:28:39.123Z,0
2017-03-23T02:29:50.111Z,0
2017-03-23T02:31:01.098Z,0
2017-03-23T02:32:12.079Z,0
2017-03-23T02:33:23.064Z,0
2017-03-23T02:34:34.257Z,0
2017-03-23T02:35:45.250Z,0
2017-03-23T02:36:56.235Z,0
2017-03-23T02:38:07.222Z,0
2017-03-23T02:39:18.207Z,0
2017-03-23T02:40:29.238Z,0
2017-03-23T02:41:40.417Z,0
2017-03-23T02:42:51.408Z,0
2017-03-23T02:44:02.392Z,0
2017-03-23T02:45:13.377Z,0
2017-03-23T02:46:24.352Z,0
2017-03-23T02:47:35.346Z,0
2017-03-23T02:48:46.330Z,0
2017-03-23T02:49:57.316Z,0
2017-03-23T02:51:08.375Z,0
2017-03-23T02:52:19.574Z,0
2017-03-23T02:53:30.554Z,0
2017-03-23T02:54:41.535Z,0
2017-03-23T02:55:52.523Z,0
2017-03-23T02:57:03.711Z,0
2017-03-23T02:58:14.903Z,0
2017-03-23T02:59:25.885Z,0
2017-03-23T03:00:36.868Z,0
2017-03-23T03:01:48.104Z,0
2017-03-23T03:02:59.095Z,0
2017-03-23T03:04:10.084Z,0
2017-03-23T03:05:21.271Z,0
2017-03-23T03:06:32.263Z,0
2017-03-23T03:07:43.255Z,0
2017-03-23T03:08:54.242Z,0
2017-03-23T03:10:05.425Z,0
2017-03-23T03:11:16.407Z,0
2017-03-23T03:12:27.440Z,0
2017-03-23T03:13:38.420Z,0
2017-03-23T03:14:49.402Z,0
2017-03-23T03:16:00.392Z,0
2017-03-23T03:17:11.379Z,0
2017-03-23T03:18:22.361Z,0
2017-03-23T03:19:33.356Z,0
2017-03-23T03:20:44.337Z,0
2017-03-23T03:21:55.316Z,0
2017-03-23T03:23:06.358Z,0
2017-03-23T03:24:17.614Z,0
2017-03-23T03:25:28.595Z,0
2017-03-23T03:26:39.779Z,0
2017-03-23T03:27:50.967Z,0
2017-03-23T03:29:01.951Z,0
2017-03-23T03:30:12.930Z,0
2017-03-23T03:31:23.916Z,0
2017-03-23T03:32:34.910Z,0
2017-03-23T03:33:46.187Z,0
2017-03-23T03:34:57.171Z,0
2017-03-23T03:36:08.156Z,0
2017-03-23T03:37:19.331Z,0
2017-03-23T03:38:30.514Z,0
2017-03-23T03:39:41.543Z,0
2017-03-23T03:40:52.537Z,0
2017-03-23T03:42:03.734Z,0
2017-03-23T03:43:14.919Z,0
2017-03-23T03:44:25.905Z,0
2017-03-23T03:45:36.891Z,0
2017-03-23T03:46:48.079Z,0
2017-03-23T03:47:59.317Z,0
2017-03-23T03:49:10.300Z,0
2017-03-23T03:50:21.289Z,0
2017-03-23T03:51:32.319Z,0
2017-03-23T03:52:43.301Z,0
2017-03-23T03:53:54.478Z,0
2017-03-23T03:55:05.717Z,0
2017-03-23T03:56:16.705Z,0
2017-03-23T03:57:27.685Z,0
2017-03-23T03:58:38.670Z,0
2017-03-23T03:59:49.647Z,0
2017-03-23T04:01:00.626Z,0
2017-03-23T04:02:11.613Z,0
2017-03-23T04:03:22.803Z,0
2017-03-23T04:04:33.829Z,0
2017-03-23T04:05:45.060Z,0
2017-03-23T04:06:56.449Z,0
2017-03-23T04:08:07.632Z,0
2017-03-23T04:09:18.615Z,0
2017-03-23T04:10:29.611Z,0
2017-03-23T04:11:40.604Z,0
2017-03-23T04:12:51.783Z,0
2017-03-23T04:14:02.765Z,0
2017-03-23T04:15:13.745Z,0
2017-03-23T04:16:24.768Z,0
2017-03-23T04:17:35.756Z,0
2017-03-23T04:18:46.942Z,0
2017-03-23T04:19:57.923Z,0
2017-03-23T04:21:09.108Z,0
2017-03-23T04:22:20.306Z,0
2017-03-23T04:23:31.287Z,0
2017-03-23T04:24:42.267Z,0
2017-03-23T04:25:53.251Z,0
2017-03-23T04:27:04.239Z,0
2017-03-23T04:28:15.456Z,0
2017-03-23T04:29:26.438Z,0
2017-03-23T04:30:37.632Z,0
2017-03-23T04:31:48.613Z,0
2017-03-23T04:32:59.650Z,0
2017-03-23T04:34:10.634Z,0
2017-03-23T04:35:22.019Z,0
2017-03-23T04:36:33.015Z,0
2017-03-23T04:37:44.404Z,0
2017-03-23T04:38:55.389Z,0
2017-03-23T04:40:06.368Z,0
2017-03-23T04:41:17.561Z,0
2017-03-23T04:42:28.549Z,0
2017-03-23T04:43:39.831Z,0
2017-03-23T04:44:50.811Z,0
2017-03-23T04:46:01.801Z,0
2017-03-23T04:47:12.780Z,0
2017-03-23T04:48:23.770Z,0
2017-03-23T04:49:34.955Z,0
2017-03-23T04:50:45.939Z,0
2017-03-23T04:51:56.925Z,0
2017-03-23T04:53:07.904Z,0
2017-03-23T04:54:19.145Z,0
2017-03-23T04:55:30.380Z,0
2017-03-23T04:56:41.773Z,0
2017-03-23T04:57:52.764Z,0
2017-03-23T04:59:03.751Z,0
2017-03-23T05:00:14.729Z,0
2017-03-23T05:01:25.759Z,4
2017-03-23T05:02:36.739Z,4
2017-03-23T05:03:47.720Z,4
2017-03-23T05:04:58.907Z,4
2017-03-23T05:06:09.897Z,4
2017-03-23T05:07:20.886Z,8
2017-03-23T05:08:31.870Z,8
2017-03-23T05:09:42.857Z,8
2017-03-23T05:10:53.897Z,12
2017-03-23T05:12:04.888Z,12
2017-03-23T05:13:15.881Z,16
2017-03-23T05:14:26.869Z,20
2017-03-23T05:15:37.861Z,24
2017-03-23T05:16:48.851Z,28
2017-03-23T05:17:59.839Z,36
2017-03-23T05:19:10.823Z,44
2017-03-23T05:20:21.813Z,52
2017-03-23T05:21:33.094Z,64
2017-03-23T05:22:44.079Z,80
2017-03-23T05:23:55.059Z,88
2017-03-23T05:25:06.245Z,104
2017-03-23T05:26:17.445Z,116
2017-03-23T05:27:28.436Z,132
2017-03-23T05:28:39.428Z,152
2017-03-23T05:29:50.422Z,172
2017-03-23T05:31:01.445Z,196
2017-03-23T05:32:12.488Z,216
2017-03-23T05:33:23.478Z,236
2017-03-23T05:34:34.461Z,256
2017-03-23T05:35:45.652Z,284
2017-03-23T05:36:56.637Z,316
2017-03-23T05:38:07.619Z,352
2017-03-23T05:39:18.601Z,380
2017-03-23T05:40:29.583Z,400
2017-03-23T05:41:40.573Z,424
2017-03-23T05:42:51.592Z,436
2017-03-23T05:44:02.613Z,448
2017-03-23T05:45:13.793Z,444
2017-03-23T05:46:24.778Z,428
2017-03-23T05:47:35.760Z,440
2017-03-23T05:48:46.797Z,460
2017-03-23T05:49:57.981Z,496
2017-03-23T05:51:08.978Z,528
2017-03-23T05:52:19.970Z,556
2017-03-23T05:53:30.955Z,584
2017-03-23T05:54:41.957Z,616
2017-03-23T05:55:52.940Z,668
2017-03-23T05:57:03.927Z,736
2017-03-23T05:58:14.914Z,804
2017-03-23T05:59:26.153Z,864
2017-03-23T06:00:37.142Z,952
2017-03-23T06:01:48.123Z,1036
2017-03-23T06:02:59.110Z,1088
2017-03-23T06:04:10.103Z,1104
2017-03-23T06:05:21.093Z,1108
2017-03-23T06:06:32.297Z,1124
2017-03-23T06:07:43.279Z,1180
2017-03-23T06:08:54.267Z,1272
2017-03-23T06:10:05.508Z,1384
2017-03-23T06:11:16.509Z,1532
2017-03-23T06:12:27.492Z,1704
2017-03-23T06:13:38.486Z,1828
2017-03-23T06:14:49.473Z,1876
2017-03-23T06:16:00.451Z,1892
2017-03-23T06:17:11.432Z,1924
2017-03-23T06:18:22.620Z,1984
2017-03-23T06:19:33.611Z,2088
2017-03-23T06:20:44.596Z,2204
2017-03-23T06:21:55.987Z,2284
2017-03-23T06:23:07.184Z,2296
2017-03-23T06:24:18.167Z,2288
2017-03-23T06:25:29.203Z,2248
2017-03-23T06:26:40.190Z,2204
2017-03-23T06:27:51.214Z,2192
2017-03-23T06:29:02.439Z,2248
2017-03-23T06:30:13.838Z,2388
2017-03-23T06:31:24.828Z,2604
2017-03-23T06:32:35.811Z,2844
2017-03-23T06:33:46.796Z,2948
2017-03-23T06:34:57.786Z,3068
2017-03-23T06:36:08.820Z,3156
2017-03-23T06:37:19.805Z,3252
2017-03-23T06:38:30.803Z,3448
2017-03-23T06:39:41.798Z,3900
2017-03-23T06:40:52.790Z,4400
2017-03-23T06:42:03.786Z,4808
2017-03-23T06:43:14.774Z,4984
2017-03-23T06:44:25.774Z,4868
2017-03-23T06:45:36.756Z,4824
2017-03-23T06:46:48.000Z,4756
2017-03-23T06:47:58.993Z,4920
2017-03-23T06:49:09.979Z,4924
2017-03-23T06:50:21.177Z,5428
2017-03-23T06:51:32.177Z,5952
2017-03-23T06:52:43.160Z,6508
2017-03-23T06:53:54.156Z,6992
2017-03-23T06:55:05.348Z,7372
2017-03-23T06:56:16.339Z,7776
2017-03-23T06:57:27.324Z,8412
2017-03-23T06:58:38.317Z,8724
2017-03-23T06:59:49.515Z,8840
2017-03-23T07:01:00.499Z,8884
2017-03-23T07:02:11.477Z,8904
2017-03-23T07:03:22.515Z,8940
2017-03-23T07:04:33.497Z,8996
2017-03-23T07:05:44.490Z,9160
2017-03-23T07:06:55.472Z,9328
2017-03-23T07:08:06.663Z,9820
2017-03-23T07:09:17.665Z,10400
2017-03-23T07:10:28.858Z,10684
2017-03-23T07:11:40.448Z,11060
2017-03-23T07:12:51.441Z,11948
2017-03-23T07:14:02.699Z,14412
2017-03-23T07:15:13.692Z,32928
2017-03-23T07:16:24.682Z,30752
2017-03-23T07:17:35.673Z,43296
2017-03-23T07:18:46.667Z,24896
2017-03-23T07:19:57.654Z,16384
2017-03-23T07:21:08.656Z,25728
2017-03-23T07:22:19.879Z,47136
2017-03-23T07:23:30.876Z,26144
2017-03-23T07:24:42.525Z,25632
2017-03-23T07:25:53.512Z,33280
2017-03-23T07:27:04.500Z,36256
2017-03-23T07:28:15.492Z,37920
2017-03-23T07:29:26.894Z,36320
2017-03-23T07:30:37.892Z,38464
2017-03-23T07:31:48.888Z,24352
2017-03-23T07:32:59.883Z,48928
2017-03-23T07:34:10.877Z,52672
2017-03-23T07:35:21.881Z,39840
2017-03-23T07:36:32.881Z,27136
2017-03-23T07:37:43.876Z,43360
2017-03-23T07:38:55.073Z,38080
2017-03-23T07:40:06.130Z,16420
2017-03-23T07:41:17.137Z,23808
2017-03-23T07:42:28.130Z,37056
2017-03-23T07:43:39.130Z,38400
2017-03-23T07:44:50.123Z,36768
2017-03-23T07:46:01.124Z,39488
2017-03-23T07:47:12.123Z,43840
2017-03-23T07:48:23.116Z,53184
2017-03-23T07:49:34.107Z,41568
2017-03-23T07:50:45.354Z,38048
2017-03-23T07:51:56.365Z,45056
2017-03-23T07:53:07.358Z,46656
2017-03-23T07:54:18.360Z,35168
2017-03-23T07:55:29.602Z,46912
2017-03-23T07:56:40.596Z,48704
2017-03-23T07:57:51.592Z,64032
2017-03-23T07:59:02.789Z,54240
2017-03-23T08:00:13.787Z,54400
2017-03-23T08:01:24.830Z,56640
2017-03-23T08:02:35.828Z,59104
2017-03-23T08:03:46.824Z,67520
2017-03-23T08:04:57.817Z,66912
2017-03-23T08:06:08.821Z,64736
2017-03-23T08:07:20.074Z,72160
2017-03-23T08:08:31.071Z,48096
2017-03-23T08:09:42.077Z,52928
2017-03-23T08:10:53.281Z,37312
2017-03-23T08:12:04.485Z,53120
2017-03-23T08:13:15.480Z,49312
2017-03-23T08:14:26.718Z,36224
2017-03-23T08:15:37.721Z,41024
2017-03-23T08:16:48.725Z,38400
2017-03-23T08:17:59.777Z,47488
2017-03-23T08:19:10.795Z,44864
2017-03-23T08:20:21.798Z,52896
2017-03-23T08:21:32.785Z,55968
2017-03-23T08:22:43.797Z,60896
2017-03-23T08:23:54.792Z,66144
2017-03-23T08:25:05.790Z,60352
2017-03-23T08:26:16.794Z,56160
2017-03-23T08:27:27.797Z,52672
2017-03-23T08:28:38.851Z,43616
2017-03-23T08:29:50.062Z,53152
2017-03-23T08:31:01.264Z,62848
2017-03-23T08:32:12.268Z,65120
2017-03-23T08:33:23.272Z,68896
2017-03-23T08:34:34.277Z,64544
2017-03-23T08:35:45.293Z,70272
2017-03-23T08:36:56.295Z,72384
2017-03-23T08:38:07.300Z,79168
2017-03-23T08:39:18.764Z,80640
2017-03-23T08:40:29.766Z,79968
2017-03-23T08:41:40.766Z,79040
2017-03-23T08:42:51.768Z,73728
2017-03-23T08:44:02.971Z,80256
2017-03-23T08:45:13.976Z,72064
2017-03-23T08:46:25.178Z,61440
2017-03-23T08:47:36.181Z,67552
2017-03-23T08:48:47.183Z,69952
2017-03-23T08:49:58.184Z,83040
2017-03-23T08:51:09.196Z,83936
2017-03-23T08:52:20.411Z,86464
2017-03-23T08:53:31.415Z,85664
2017-03-23T08:54:42.416Z,82624
2017-03-23T08:55:53.472Z,82048
2017-03-23T08:57:04.496Z,82944
2017-03-23T08:58:15.505Z,83360
2017-03-23T08:59:26.709Z,83200
2017-03-23T09:00:37.716Z,83264
2017-03-23T09:01:48.725Z,79008
2017-03-23T09:02:59.934Z,77824
2017-03-23T09:04:10.950Z,78400
2017-03-23T09:05:22.168Z,80000
2017-03-23T09:06:33.237Z,80160
2017-03-23T09:07:44.240Z,73216
2017-03-23T09:08:55.251Z,70880
2017-03-23T09:10:06.265Z,73120
2017-03-23T09:11:17.271Z,76480
2017-03-23T09:12:28.279Z,74176
2017-03-23T09:13:39.293Z,70016
2017-03-23T09:14:50.327Z,73824
2017-03-23T09:16:01.344Z,74688
2017-03-23T09:17:12.404Z,74720
2017-03-23T09:18:23.421Z,71936
2017-03-23T09:19:34.429Z,75424
2017-03-23T09:20:45.442Z,73376
2017-03-23T09:21:56.456Z,70944
2017-03-23T09:23:07.717Z,73408
2017-03-23T09:24:18.729Z,76896
2017-03-23T09:25:29.743Z,76960
2017-03-23T09:26:40.750Z,75840
2017-03-23T09:27:51.762Z,78816
2017-03-23T09:29:02.785Z,77728
2017-03-23T09:30:13.801Z,72672
2017-03-23T09:31:24.807Z,57728
2017-03-23T09:32:35.818Z,28416
2017-03-23T09:33:47.026Z,32320
2017-03-23T09:34:58.291Z,80928
2017-03-23T09:36:09.292Z,81248
2017-03-23T09:37:20.310Z,79456
2017-03-23T09:38:31.522Z,81568
2017-03-23T09:39:42.523Z,24000
2017-03-23T09:40:53.530Z,42880
2017-03-23T09:42:04.543Z,31840
2017-03-23T09:43:15.743Z,21792
2017-03-23T09:44:27.212Z,78816
2017-03-23T09:45:38.221Z,86208
2017-03-23T09:46:49.232Z,87776
2017-03-23T09:48:00.436Z,63136
2017-03-23T09:49:11.445Z,25280
2017-03-23T09:50:22.452Z,18336
2017-03-23T09:51:33.465Z,18272
2017-03-23T09:52:44.478Z,17472
2017-03-23T09:53:55.487Z,16352
2017-03-23T09:55:07.002Z,17376
2017-03-23T09:56:18.028Z,19008
2017-03-23T09:57:29.030Z,32864
2017-03-23T09:58:40.041Z,66560
2017-03-23T09:59:51.244Z,27648
2017-03-23T10:01:02.251Z,35136
2017-03-23T10:02:13.257Z,72928
2017-03-23T10:03:24.256Z,79712
2017-03-23T10:04:35.266Z,78624
2017-03-23T10:05:46.271Z,76352
2017-03-23T10:06:57.313Z,78272
2017-03-23T10:08:08.323Z,21920
2017-03-23T10:09:19.325Z,27008
2017-03-23T10:10:30.363Z,17632
2017-03-23T10:11:41.391Z,18784
2017-03-23T10:12:52.398Z,19232
2017-03-23T10:14:03.806Z,21504
2017-03-23T10:15:14.808Z,64960
2017-03-23T10:16:25.860Z,17888
2017-03-23T10:17:36.861Z,15808
2017-03-23T10:18:47.864Z,16864
2017-03-23T10:19:58.863Z,21152
2017-03-23T10:21:10.071Z,36800
2017-03-23T10:22:21.474Z,69984
2017-03-23T10:23:32.471Z,24704
2017-03-23T10:24:43.481Z,22560
2017-03-23T10:25:54.484Z,64928
2017-03-23T10:27:05.744Z,22464
2017-03-23T10:28:16.950Z,24288
2017-03-23T10:29:27.960Z,31744
2017-03-23T10:30:38.958Z,21216
2017-03-23T10:31:50.157Z,31520
2017-03-23T10:33:01.155Z,41056
2017-03-23T10:34:12.157Z,53056
2017-03-23T10:35:23.355Z,14756
2017-03-23T10:36:34.354Z,12100
2017-03-23T10:37:45.603Z,13328
2017-03-23T10:38:56.604Z,36352
2017-03-23T10:40:07.606Z,14468
2017-03-23T10:41:18.657Z,13492
2017-03-23T10:42:29.674Z,15816
2017-03-23T10:43:40.674Z,26272
2017-03-23T10:44:51.874Z,26496
2017-03-23T10:46:02.867Z,23648
2017-03-23T10:47:13.875Z,26112
2017-03-23T10:48:25.072Z,31968
2017-03-23T10:49:36.121Z,29440
2017-03-23T10:50:47.520Z,22080
2017-03-23T10:51:58.517Z,41472
2017-03-23T10:53:09.518Z,26912
2017-03-23T10:54:20.516Z,22144
2017-03-23T10:55:31.519Z,32448
2017-03-23T10:56:42.524Z,53216
2017-03-23T10:57:53.521Z,33408
2017-03-23T10:59:04.781Z,47712
2017-03-23T11:00:15.780Z,22816
2017-03-23T11:01:26.980Z,20448
2017-03-23T11:02:38.185Z,23136
2017-03-23T11:03:49.185Z,17056
2017-03-23T11:05:00.383Z,15856
2017-03-23T11:06:11.389Z,49280
2017-03-23T11:07:22.385Z,14840
2017-03-23T11:08:33.391Z,14656
2017-03-23T11:09:44.641Z,15772
2017-03-23T11:10:55.634Z,14560
2017-03-23T11:12:06.678Z,15512
2017-03-23T11:13:17.688Z,17856
2017-03-23T11:14:28.891Z,17472
2017-03-23T11:15:39.892Z,22752
2017-03-23T11:16:51.093Z,26528
2017-03-23T11:18:02.284Z,28864
2017-03-23T11:19:13.489Z,38848
2017-03-23T11:20:24.685Z,13496
2017-03-23T11:21:35.893Z,12932
2017-03-23T11:22:46.893Z,12928
2017-03-23T11:23:57.923Z,13252
2017-03-23T11:25:08.934Z,14016
2017-03-23T11:26:19.977Z,15256
2017-03-23T11:27:30.972Z,16672
2017-03-23T11:28:41.978Z,17440
2017-03-23T11:29:52.972Z,18464
2017-03-23T11:31:04.181Z,19904
2017-03-23T11:32:15.181Z,22208
2017-03-23T11:33:26.181Z,25536
2017-03-23T11:34:37.171Z,23008
2017-03-23T11:35:48.425Z,20032
2017-03-23T11:36:59.440Z,32000
2017-03-23T11:38:10.439Z,14564
2017-03-23T11:39:21.432Z,14484
2017-03-23T11:40:32.427Z,16288
2017-03-23T11:41:43.421Z,19872
2017-03-23T11:42:54.416Z,21440
2017-03-23T11:44:05.410Z,19296
2017-03-23T11:45:16.397Z,18016
2017-03-23T11:46:27.446Z,16608
2017-03-23T11:47:38.444Z,17056
2017-03-23T11:48:49.648Z,19360
2017-03-23T11:50:00.843Z,24544
2017-03-23T11:51:11.842Z,38464
2017-03-23T11:52:23.089Z,21568
2017-03-23T11:53:34.083Z,24128
2017-03-23T11:54:45.281Z,34336
2017-03-23T11:55:56.274Z,17056
2017-03-23T11:57:07.271Z,18912
2017-03-23T11:58:18.470Z,18976
2017-03-23T11:59:29.468Z,16704
2017-03-23T12:00:40.481Z,17600
2017-03-23T12:01:51.479Z,29856
2017-03-23T12:03:02.731Z,17920
2017-03-23T12:04:13.736Z,30400
2017-03-23T12:05:24.735Z,20480
2017-03-23T12:06:35.739Z,13448
2017-03-23T12:07:46.943Z,11664
2017-03-23T12:08:57.934Z,10984
2017-03-23T12:10:08.927Z,10384
2017-03-23T12:11:19.929Z,10096
2017-03-23T12:12:30.924Z,9692
2017-03-23T12:13:42.160Z,9312
2017-03-23T12:14:53.155Z,9144
2017-03-23T12:16:04.146Z,8504
2017-03-23T12:17:15.132Z,9140
2017-03-23T12:18:26.131Z,9312
2017-03-23T12:19:37.133Z,11596
2017-03-23T12:20:48.129Z,28960
2017-03-23T12:21:59.132Z,27904
2017-03-23T12:23:10.121Z,28704
2017-03-23T12:24:52.788Z,19744
2017-03-23T12:26:03.977Z,25408
2017-03-23T12:27:14.977Z,24032
2017-03-23T12:28:26.174Z,23968
2017-03-23T12:29:37.213Z,25856
2017-03-23T12:30:48.213Z,26464
2017-03-23T12:31:59.210Z,25184
2017-03-23T12:33:10.215Z,25760
2017-03-23T12:34:21.214Z,18944
2017-03-23T12:35:32.217Z,24032
2017-03-23T12:36:43.247Z,21056
2017-03-23T12:37:54.251Z,13828
2017-03-23T12:39:05.246Z,19136
2017-03-23T12:40:16.495Z,19936
2017-03-23T12:41:27.490Z,14048
2017-03-23T12:42:38.693Z,9556
2017-03-23T12:43:49.690Z,9204
2017-03-23T12:45:00.696Z,15104
2017-03-23T12:46:11.894Z,10772
2017-03-23T12:47:22.893Z,16192
2017-03-23T12:48:33.887Z,17056
2017-03-23T12:49:44.878Z,16512
2017-03-23T12:50:56.131Z,15360
2017-03-23T12:52:07.334Z,14880
2017-03-23T12:53:18.526Z,15040
2017-03-23T12:54:29.725Z,14304
2017-03-23T12:55:40.920Z,13344
2017-03-23T12:56:51.992Z,12896
2017-03-23T12:58:03.188Z,10372
2017-03-23T12:59:14.175Z,11492
2017-03-23T13:00:25.373Z,11668
2017-03-23T13:01:36.438Z,12356
2017-03-23T13:02:47.439Z,12892
2017-03-23T13:03:58.429Z,13632
2017-03-23T13:05:09.429Z,14048
2017-03-23T13:06:20.429Z,14240
2017-03-23T13:07:31.425Z,12648
2017-03-23T13:08:42.426Z,14560
2017-03-23T13:09:53.456Z,13292
2017-03-23T13:11:04.456Z,10444
2017-03-23T13:12:15.701Z,9852
2017-03-23T13:13:26.700Z,11076
2017-03-23T13:14:37.694Z,11768
2017-03-23T13:15:48.691Z,8612
2017-03-23T13:16:59.684Z,9000
2017-03-23T13:18:10.673Z,10264
2017-03-23T13:19:21.869Z,9060
2017-03-23T13:20:32.879Z,10016
2017-03-23T13:21:43.876Z,10020
2017-03-23T13:22:54.916Z,10512
2017-03-23T13:24:05.908Z,10728
2017-03-23T13:25:16.905Z,10584
2017-03-23T13:26:27.900Z,10560
2017-03-23T13:27:39.101Z,9972
2017-03-23T13:28:50.341Z,10996
2017-03-23T13:30:01.338Z,11092
2017-03-23T13:31:12.334Z,9060
2017-03-23T13:32:23.329Z,9832
2017-03-23T13:33:34.329Z,7376
2017-03-23T13:34:45.324Z,6860
2017-03-23T13:35:56.338Z,6840
2017-03-23T13:37:07.325Z,7000
2017-03-23T13:38:18.321Z,8920
2017-03-23T13:39:29.762Z,8724
2017-03-23T13:40:40.795Z,8028
2017-03-23T13:41:51.789Z,8768
2017-03-23T13:43:02.791Z,9128
2017-03-23T13:44:13.786Z,9924
2017-03-23T13:45:24.781Z,10396
2017-03-23T13:46:35.770Z,11272
2017-03-23T13:47:46.771Z,11804
2017-03-23T13:48:57.763Z,11532
2017-03-23T13:50:09.053Z,10048
2017-03-23T13:51:20.258Z,10940
2017-03-23T13:52:31.253Z,9700
2017-03-23T13:53:42.246Z,9156
2017-03-23T13:54:53.442Z,7748
2017-03-23T13:56:04.433Z,6924
2017-03-23T13:57:15.642Z,6400
2017-03-23T13:58:26.642Z,6308
2017-03-23T13:59:37.839Z,6296
2017-03-23T14:00:49.084Z,6412
2017-03-23T14:02:00.524Z,6428
2017-03-23T14:03:11.716Z,6444
2017-03-23T14:04:22.707Z,6216
2017-03-23T14:05:33.700Z,6480
2017-03-23T14:06:44.898Z,9356
2017-03-23T14:07:55.890Z,9684
2017-03-23T14:09:07.093Z,9812
2017-03-23T14:10:18.084Z,9500
2017-03-23T14:11:29.089Z,9364
2017-03-23T14:12:40.099Z,9248
2017-03-23T14:13:51.131Z,9044
2017-03-23T14:15:02.126Z,8520
2017-03-23T14:16:13.120Z,8524
2017-03-23T14:17:24.169Z,8768
2017-03-23T14:18:35.174Z,8764
2017-03-23T14:19:46.567Z,8908
2017-03-23T14:20:57.565Z,8904
2017-03-23T14:22:08.564Z,9304
2017-03-23T14:23:19.545Z,9324
2017-03-23T14:24:30.540Z,9624
2017-03-23T14:25:41.554Z,9528
2017-03-23T14:26:52.975Z,8640
2017-03-23T14:28:04.219Z,7816
2017-03-23T14:29:15.213Z,7604
2017-03-23T14:30:26.202Z,7584
2017-03-23T14:31:37.195Z,7456
2017-03-23T14:32:48.193Z,7628
2017-03-23T14:33:59.395Z,7576
2017-03-23T14:35:10.606Z,7476
2017-03-23T14:36:21.595Z,7464
2017-03-23T14:37:32.581Z,7328
2017-03-23T14:38:43.832Z,7292
2017-03-23T14:39:54.862Z,7420
2017-03-23T14:41:05.861Z,7496
2017-03-23T14:42:16.854Z,7244
2017-03-23T14:43:27.847Z,7368
2017-03-23T14:44:39.285Z,7504
2017-03-23T14:45:50.487Z,7044
2017-03-23T14:47:01.522Z,7092
2017-03-23T14:48:12.519Z,6680
2017-03-23T14:49:23.513Z,5760
2017-03-23T14:50:34.511Z,5756
2017-03-23T14:51:45.506Z,5444
2017-03-23T14:52:56.498Z,4904
2017-03-23T14:54:07.507Z,4916
2017-03-23T14:55:18.742Z,4908
2017-03-23T14:56:29.741Z,5020
2017-03-23T14:57:40.741Z,5660
2017-03-23T14:58:51.934Z,6292
2017-03-23T15:00:02.919Z,6264
2017-03-23T15:01:13.912Z,5864
2017-03-23T15:02:24.909Z,5992
2017-03-23T15:03:35.903Z,6728
2017-03-23T15:04:47.105Z,6340
2017-03-23T15:05:58.350Z,5980
2017-03-23T15:07:09.348Z,5276
2017-03-23T15:08:20.343Z,5200
2017-03-23T15:09:31.351Z,5080
2017-03-23T15:10:42.351Z,4972
2017-03-23T15:11:53.351Z,4836
2017-03-23T15:13:04.353Z,5492
2017-03-23T15:14:15.345Z,5852
2017-03-23T15:15:26.345Z,5504
2017-03-23T15:16:37.383Z,5520
2017-03-23T15:17:48.381Z,5464
2017-03-23T15:18:59.381Z,5496
2017-03-23T15:20:10.413Z,4884
2017-03-23T15:21:21.410Z,4600
2017-03-23T15:22:32.453Z,4336
2017-03-23T15:23:43.452Z,4016
2017-03-23T15:24:54.644Z,4308
2017-03-23T15:26:05.642Z,4200
2017-03-23T15:27:16.647Z,4020
2017-03-23T15:28:27.653Z,3876
2017-03-23T15:29:38.641Z,4124
2017-03-23T15:30:49.838Z,4312
2017-03-23T15:32:00.832Z,4348
2017-03-23T15:33:11.883Z,4280
2017-03-23T15:34:23.084Z,4000
2017-03-23T15:35:34.083Z,3664
2017-03-23T15:36:45.278Z,3652
2017-03-23T15:37:56.270Z,3968
2017-03-23T15:39:07.470Z,3844
2017-03-23T15:40:18.464Z,3584
2017-03-23T15:41:29.452Z,3520
2017-03-23T15:42:40.448Z,3892
2017-03-23T15:43:51.478Z,3932
2017-03-23T15:45:02.471Z,3904
2017-03-23T15:46:13.464Z,3840
2017-03-23T15:47:24.852Z,3648
2017-03-23T15:48:36.046Z,3780
2017-03-23T15:49:47.033Z,3732
2017-03-23T15:50:58.022Z,3660
2017-03-23T15:52:09.017Z,3468
2017-03-23T15:53:20.003Z,3380
2017-03-23T15:54:31.041Z,3612
2017-03-23T15:55:42.229Z,3564
2017-03-23T15:56:53.223Z,3472
2017-03-23T15:58:04.226Z,3456
2017-03-23T15:59:15.213Z,3424
2017-03-23T16:00:26.215Z,3412
2017-03-23T16:01:37.408Z,3420
2017-03-23T16:02:48.394Z,3388
2017-03-23T16:03:59.578Z,3364
2017-03-23T16:05:10.561Z,3344
2017-03-23T16:06:21.563Z,3312
2017-03-23T16:07:32.759Z,3216